createdAt,value
2023-07-11T00:01:05.836Z,22
2023-07-11T00:16:06.711Z,15
2023-07-11T00:31:05.410Z,21
2023-07-11T00:46:06.852Z,18
2023-07-11T01:01:05.116Z,16
2023-07-11T01:16:06.079Z,17
2023-07-11T01:31:05.061Z,16
2023-07-11T01:46:06.548Z,17
2023-07-11T02:01:05.323Z,16
2023-07-11T02:16:05.898Z,14
2023-07-11T02:31:05.600Z,16
2023-07-11T02:46:05.448Z,17
2023-07-11T03:01:05.471Z,18
2023-07-11T03:16:06.292Z,18
2023-07-11T03:31:05.561Z,14
2023-07-11T03:46:04.993Z,18
2023-07-11T04:01:05.626Z,15
2023-07-11T04:16:06.101Z,16
2023-07-11T04:31:05.925Z,14
2023-07-11T04:46:06.007Z,14
2023-07-11T05:01:05.375Z,15
2023-07-11T05:16:06.457Z,17
2023-07-11T05:31:04.792Z,16
2023-07-11T05:46:06.412Z,14
2023-07-11T06:01:05.067Z,15
2023-07-11T06:16:05.929Z,12
2023-07-11T06:31:08.644Z,13
2023-07-11T06:46:05.264Z,16
2023-07-11T07:01:13.735Z,14
2023-07-11T07:16:05.070Z,10
2023-07-11T07:31:05.560Z,10
2023-07-11T07:46:05.561Z,8
2023-07-11T08:01:05.955Z,10
2023-07-11T08:16:31.333Z,8
2023-07-11T08:31:06.012Z,8
2023-07-11T08:46:14.789Z,9
2023-07-11T09:01:05.657Z,9
2023-07-11T09:16:05.629Z,8
2023-07-11T09:31:05.726Z,8
2023-07-11T09:46:05.707Z,7
2023-07-11T10:16:05.994Z,8
2023-07-11T10:45:24.708Z,6
2023-07-11T11:00:23.608Z,3
2023-07-11T11:15:23.921Z,3
2023-07-11T11:30:24.332Z,3
2023-07-11T11:45:43.433Z,6
2023-07-11T12:00:24.240Z,5
2023-07-11T12:15:24.700Z,4
2023-07-11T12:30:24.548Z,2
2023-07-11T12:45:24.148Z,2
2023-07-11T13:00:24.471Z,7
2023-07-11T13:15:24.682Z,2
2023-07-11T13:30:24.838Z,3
2023-07-11T13:45:24.054Z,3
2023-07-11T14:00:26.868Z,4
2023-07-11T14:15:23.864Z,3
2023-07-11T14:30:24.159Z,2
2023-07-11T14:35:41.194Z,2
2023-07-11T14:46:05.863Z,3
2023-07-11T15:01:05.476Z,3
2023-07-11T15:31:06.761Z,4
2023-07-11T15:46:06.141Z,3
2023-07-11T16:01:05.509Z,4
2023-07-11T16:16:05.037Z,6
2023-07-11T16:31:05.962Z,3
2023-07-11T16:46:05.671Z,3
2023-07-11T17:01:05.873Z,3
2023-07-11T17:16:05.743Z,2
2023-07-11T17:31:05.931Z,3
2023-07-11T17:46:50.553Z,3
2023-07-11T18:01:06.401Z,6
2023-07-11T18:16:05.016Z,6
2023-07-11T18:31:05.461Z,7
2023-07-11T18:46:04.906Z,10
2023-07-11T19:01:06.213Z,9
2023-07-11T19:16:04.976Z,4
2023-07-11T19:45:24.728Z,6
2023-07-11T20:00:23.684Z,4
2023-07-11T20:15:24.248Z,4
2023-07-11T20:30:24.522Z,3
2023-07-11T20:45:24.519Z,6
2023-07-11T21:00:24.365Z,5
2023-07-11T21:15:24.480Z,8
2023-07-11T21:30:24.829Z,9
2023-07-11T21:45:24.149Z,7
2023-07-11T22:00:24.427Z,5
2023-07-11T22:15:24.672Z,7
2023-07-11T22:30:24.745Z,7
2023-07-11T22:45:23.973Z,6
2023-07-11T23:00:24.403Z,8
2023-07-11T23:15:23.757Z,8
2023-07-11T23:30:23.766Z,8
2023-07-11T23:45:23.629Z,9
